Flight Track Log - Related Links

Times and Time Zones

All times are in EDT time to prevent confusion due to time zone crossing. See the N555CT flight status page for this flight to view local times or setup timezone preferences in your user account.

Time Position Orientation Groundspeed Altitude Reporting Facility
EDT Latitude Longitude Course Direction KTS MPH feet Rate Location/Type
Sun 04:12:56 PM 26.0939 -80.1811 312° West 109 125 900  Level Miami Center
Sun 04:13:57 PM 26.1111 -80.2081 305° West 115 132 1,400 444 Climbing Miami Center
Sun 04:14:17 PM 26.1150 -80.2106 330° Northwest 109 125 1,500 393 Climbing Miami Center
Sun 04:14:58 PM 26.1297 -80.2419 298° West 137 158 1,800 387 Climbing Miami Center
Sun 04:15:19 PM 26.1317 -80.2550 279° West 138 159 1,900 98 Climbing Miami Center
Sun 04:15:59 PM 26.1314 -80.2839 269° West 141 162 1,900  Level Miami Center
Sun 04:16:22 PM 26.1322 -80.2981 274° West 141 162 1,900  Level Miami Center
Sun 04:17:00 PM 26.1328 -80.3303 271° West 144 166 1,900  Level Miami Center
Sun 04:17:24 PM 26.1328 -80.3425 270° West 141 162 1,900  Level Miami Center
Sun 04:17:54 PM 26.1322 -80.3719 269° West 146 168 1,900  Level Miami Center
Sun 04:18:00 PM 26.1994 -80.3367 312° West  Level FlightAware Approximate
Sun 04:18:26 PM 26.1347 -80.3872 280° West 142 163 1,900  Level Miami Center
Sun 04:18:55 PM 26.1397 -80.4144 282° West 146 168 1,900  Level Miami Center
Sun 04:19:28 PM 26.1442 -80.4303 287° West 144 166 1,900 98 Level Miami Center
Sun 04:19:56 PM 26.1472 -80.4614 276° West 147 169 2,000 97 Climbing Miami Center
Sun 04:20:30 PM 26.1511 -80.4750 288° West 145 167 2,000  Level Miami Center
Sun 04:20:57 PM 26.1569 -80.5064 282° West 148 170 2,000  Level Miami Center
Sun 04:21:32 PM 26.1631 -80.5283 287° West 146 168 2,000  Level Miami Center
Sun 04:22:34 PM 26.1744 -80.5722 286° West 147 169 2,000  Level Miami Center
Sun 04:23:37 PM 26.1836 -80.6172 283° West 147 169 2,000  Level Miami Center
Sun 04:24:39 PM 26.1944 -80.6608 285° West 147 169 2,000  Level Miami Center
Sun 04:25:41 PM 26.1994 -80.7053 277° West 147 169 2,000 290 Level Miami Center
Sun 04:26:43 PM 26.2031 -80.7564 275° West 140 161 2,600 339 Climbing Miami Center
Sun 04:27:45 PM 26.2036 -80.7975 271° West 135 155 2,700 -48 Climbing Miami Center
Sun 04:28:48 PM 26.2042 -80.8447 271° West 150 173 2,500 -96 Descending Miami Center
Sun 04:29:50 PM 26.2042 -80.8886 270° West 147 169 2,500  Level Miami Center
Sun 04:30:52 PM 26.2044 -80.9344 270° West 147 169 2,500  Level Miami Center
Sun 04:31:54 PM 26.2047 -80.9889 270° West 147 169 2,500  Level Miami Center
Sun 04:32:56 PM 26.2108 -81.0364 278° West 147 169 2,500  Level Miami Center
Sun 04:33:59 PM 26.2192 -81.0797 282° West 146 168 2,500  Level Miami Center
Sun 04:35:01 PM 26.2314 -81.1247 287° West 144 166 2,500 48 Level Miami Center
Sun 04:36:03 PM 26.2433 -81.1633 289° West 144 166 2,600 48 Climbing Miami Center
Sun 04:37:05 PM 26.2594 -81.2103 291° West 144 166 2,600  Level Miami Center
Sun 04:38:07 PM 26.2711 -81.2508 288° West 143 165 2,600  Level Miami Center
Sun 04:40:12 PM 26.2917 -81.3350 285° West 139 160 2,600  Level Miami Center
Sun 04:41:14 PM 26.3011 -81.3797 283° West 139 160 2,600  Level Miami Center
Sun 04:42:16 PM 26.3117 -81.4247 285° West 139 160 2,600  Level Miami Center
Sun 04:43:18 PM 26.3217 -81.4661 285° West 139 160 2,600  Level Miami Center
Sun 04:44:20 PM 26.3331 -81.5108 286° West 139 160 2,600  Level Miami Center
Sun 04:45:22 PM 26.3414 -81.5522 283° West 139 160 2,600  Level Miami Center
Sun 04:46:25 PM 26.3489 -81.5969 281° West 139 160 2,600  Level Miami Center
Sun 04:47:27 PM 26.3561 -81.6381 281° West 139 160 2,600  Level Miami Center
Sun 04:48:29 PM 26.3633 -81.6833 280° West 139 160 2,600  Level Miami Center
Sun 04:49:31 PM 26.3675 -81.7253 276° West 138 159 2,600  Level Miami Center
Sun 04:50:33 PM 26.3686 -81.7697 272° West 138 159 2,600  Level Miami Center
Sun 04:51:35 PM 26.3667 -81.8114 267° West 137 158 2,600  Level Miami Center
Sun 04:52:37 PM 26.3644 -81.8581 267° West 137 158 2,600  Level Miami Center
Sun 04:53:39 PM 26.3619 -81.9008 266° West 138 159 2,600  Level Miami Center
Sun 04:54:41 PM 26.3861 -81.9383 306° West 142 163 2,600  Level Miami Center
Sun 04:55:43 PM 26.4164 -81.9661 321° Northwest 142 163 2,600  Level Miami Center
Sun 04:56:45 PM 26.4511 -81.9928 325° Northwest 142 163 2,600 -97 Level Miami Center
Sun 04:57:47 PM 26.4842 -82.0194 324° Northwest 147 169 2,400 -48 Descending Miami Center
Sun 04:58:49 PM 26.5194 -82.0467 325° Northwest 139 160 2,500 48 Climbing Miami Center
Sun 04:59:51 PM 26.5500 -82.0711 324° Northwest 137 158 2,500  Level Miami Center
Sun 05:00:53 PM 26.5858 -82.0964 328° Northwest 140 161 2,500  Level Miami Center
Sun 05:01:55 PM 26.6200 -82.1192 329° Northwest 141 162 2,500  Level Miami Center
Sun 05:02:57 PM 26.6561 -82.1439 329° Northwest 141 162 2,500 32 Level Miami Center
Sun 05:05:00 PM 26.7211 -82.1953 325° Northwest 140 161 2,600 32 Climbing Miami Center
Sun 05:06:02 PM 26.7536 -82.2189 327° Northwest 140 161 2,600  Level Miami Center
Sun 05:07:04 PM 26.7936 -82.2414 333° Northwest 149 171 2,600  Level Miami Center
Sun 05:08:06 PM 26.8325 -82.2594 337° Northwest 151 174 2,600 48 Level Miami Center
Sun 05:09:08 PM 26.8778 -82.2758 342° North 159 183 2,700 48 Climbing Miami Center
Sun 05:10:10 PM 26.9194 -82.2839 350° North 155 178 2,700 -48 Level Miami Center
Sun 05:11:12 PM 26.9608 -82.3000 341° North 151 174 2,600 -48 Descending Miami Center
Sun 05:12:14 PM 26.9986 -82.3158 340° North 150 173 2,600  Level Miami Center
Sun 05:13:16 PM 27.0367 -82.3322 339° North 149 171 2,600  Level Miami Center
Sun 05:14:17 PM 27.0731 -82.3461 341° North 146 168 2,600  Level Miami Center
Sun 05:15:19 PM 27.1089 -82.3606 340° North 142 163 2,600  Level Miami Center
Sun 05:16:21 PM 27.1447 -82.3747 341° North 140 161 2,600  Level Miami Center
Sun 05:17:23 PM 27.1806 -82.3889 341° North 140 161 2,600  Level Miami Center
Sun 05:18:25 PM 27.2233 -82.4061 340° North 138 159 2,600  Level Miami Center
Sun 05:19:27 PM 27.2594 -82.4203 341° North 138 159 2,600  Level Miami Center
Sun 05:20:29 PM 27.2947 -82.4356 339° North 137 158 2,600  Level Miami Center
Sun 05:21:31 PM 27.3314 -82.4511 339° North 138 159 2,600  Level Miami Center
Sun 05:22:42 PM 27.3833 -82.4667 345° North 142 163 2,600  Level Tampa TRACON
Sun 05:23:43 PM 27.4167 -82.4833 336° Northwest 142 163 2,600  Level Tampa TRACON
Sun 05:24:43 PM 27.4500 -82.5000 336° Northwest 141 162 2,600  Level Tampa TRACON
Sun 05:25:43 PM 27.4833 -82.5167 336° Northwest 141 162 2,600  Level Tampa TRACON
Sun 05:26:43 PM 27.5167 -82.5500 318° Northwest 143 165 2,600  Level Tampa TRACON
Sun 05:27:43 PM 27.5500 -82.5833 318° Northwest 141 162 2,600  Level Tampa TRACON
Sun 05:28:43 PM 27.5833 -82.6167 318° Northwest 144 166 2,600  Level Tampa TRACON
Sun 05:29:43 PM 27.6000 -82.6333 318° Northwest 144 166 2,600  Level Tampa TRACON
Sun 05:30:43 PM 27.6333 -82.6667 318° Northwest 144 166 2,600  Level Tampa TRACON
Sun 05:31:49 PM 27.6667 -82.7000 318° Northwest 137 158 2,600 -143 Level Tampa TRACON
Sun 05:32:49 PM 27.7167 -82.6833 16° North 148 170 2,300 -368 Descending Tampa TRACON
Sun 05:33:43 PM 27.7500 -82.6833 360° North 151 174 1,900 -263 Descending Tampa TRACON
Sun 05:34:43 PM 27.7833 -82.6833 360° North 133 153 1,800 -150 Descending Tampa TRACON
Sun 05:35:43 PM 27.8167 -82.6833 360° North 136 157 1,600 -350 Descending Tampa TRACON
Sun 05:36:43 PM 27.8667 -82.6833 360° North 134 154 1,100 -600 Descending Tampa TRACON
Sun 05:37:43 PM 27.9000 -82.7000 336° Northwest 99 114 400 -700 Descending Tampa TRACON
Sun 05:39:00 PM 27.9100 -82.6875 48° Northeast  Level Estimated
Sun 05:46:00 PM 27.9100 -82.6875 North  Level Estimated
Sun 05:47:00 PM 27.9100 -82.6875 North  Level Estimated

Login

Don't have an account? Register now (free) for customized features, flight alerts, and more!